sensor_id;sensor_type;location;lat;lon;timestamp;temperature;humidity
3912;DHT22;1971;51.778;10.330;2023-05-29T00:01:37;12.40;99.90
3912;DHT22;1971;51.778;10.330;2023-05-29T00:04:08;12.50;99.90
3912;DHT22;1971;51.778;10.330;2023-05-29T00:06:40;12.40;99.90
3912;DHT22;1971;51.778;10.330;2023-05-29T00:09:10;12.50;99.90
3912;DHT22;1971;51.778;10.330;2023-05-29T00:11:40;12.50;99.90
3912;DHT22;1971;51.778;10.330;2023-05-29T00:14:10;12.60;99.90
3912;DHT22;1971;51.778;10.330;2023-05-29T00:16:45;12.60;99.90
3912;DHT22;1971;51.778;10.330;2023-05-29T00:19:16;12.50;99.90
3912;DHT22;1971;51.778;10.330;2023-05-29T00:21:46;12.60;99.90
3912;DHT22;1971;51.778;10.330;2023-05-29T00:24:17;12.50;99.90
3912;DHT22;1971;51.778;10.330;2023-05-29T00:26:47;12.50;99.90
3912;DHT22;1971;51.778;10.330;2023-05-29T00:29:17;12.60;99.90
3912;DHT22;1971;51.778;10.330;2023-05-29T00:31:50;12.50;99.90
3912;DHT22;1971;51.778;10.330;2023-05-29T00:34:22;12.50;99.90
3912;DHT22;1971;51.778;10.330;2023-05-29T00:36:53;12.40;99.90
3912;DHT22;1971;51.778;10.330;2023-05-29T00:39:24;12.40;99.90
3912;DHT22;1971;51.778;10.330;2023-05-29T00:41:54;12.30;99.90
3912;DHT22;1971;51.778;10.330;2023-05-29T00:44:24;12.30;99.90
3912;DHT22;1971;51.778;10.330;2023-05-29T00:46:57;12.30;99.90
3912;DHT22;1971;51.778;10.330;2023-05-29T00:49:27;12.20;99.90
3912;DHT22;1971;51.778;10.330;2023-05-29T00:51:57;12.20;1.00
3912;DHT22;1971;51.778;10.330;2023-05-29T00:54:29;12.20;1.00
3912;DHT22;1971;51.778;10.330;2023-05-29T00:57:00;12.10;1.00
3912;DHT22;1971;51.778;10.330;2023-05-29T00:59:32;12.10;1.00
3912;DHT22;1971;51.778;10.330;2023-05-29T01:02:05;12.20;1.00
3912;DHT22;1971;51.778;10.330;2023-05-29T01:04:36;12.10;1.00
3912;DHT22;1971;51.778;10.330;2023-05-29T01:07:07;12.10;1.00
3912;DHT22;1971;51.778;10.330;2023-05-29T01:09:38;12.10;1.00
3912;DHT22;1971;51.778;10.330;2023-05-29T01:12:19;12.10;1.00
3912;DHT22;1971;51.778;10.330;2023-05-29T01:18:04;12.10;1.00
3912;DHT22;1971;51.778;10.330;2023-05-29T01:20:40;12.10;1.00
3912;DHT22;1971;51.778;10.330;2023-05-29T01:23:28;12.10;1.00
3912;DHT22;1971;51.778;10.330;2023-05-29T01:26:12;12.00;1.00
3912;DHT22;1971;51.778;10.330;2023-05-29T01:28:49;12.00;1.00
3912;DHT22;1971;51.778;10.330;2023-05-29T01:31:23;11.90;1.00
3912;DHT22;1971;51.778;10.330;2023-05-29T01:33:55;11.90;1.00
3912;DHT22;1971;51.778;10.330;2023-05-29T01:36:26;11.90;1.00
3912;DHT22;1971;51.778;10.330;2023-05-29T01:38:58;11.90;1.00
3912;DHT22;1971;51.778;10.330;2023-05-29T01:41:29;11.80;1.00
3912;DHT22;1971;51.778;10.330;2023-05-29T01:44:05;12.10;1.00
3912;DHT22;1971;51.778;10.330;2023-05-29T01:46:38;11.70;1.00
3912;DHT22;1971;51.778;10.330;2023-05-29T01:49:09;11.60;1.00
3912;DHT22;1971;51.778;10.330;2023-05-29T01:51:40;11.60;1.00
3912;DHT22;1971;51.778;10.330;2023-05-29T01:54:11;11.60;1.00
3912;DHT22;1971;51.778;10.330;2023-05-29T01:56:42;11.60;1.00
3912;DHT22;1971;51.778;10.330;2023-05-29T01:59:15;11.50;1.00
3912;DHT22;1971;51.778;10.330;2023-05-29T02:01:47;11.50;1.00
3912;DHT22;1971;51.778;10.330;2023-05-29T02:04:17;11.40;1.00
3912;DHT22;1971;51.778;10.330;2023-05-29T02:06:47;11.40;1.00
3912;DHT22;1971;51.778;10.330;2023-05-29T02:09:21;11.30;1.00
3912;DHT22;1971;51.778;10.330;2023-05-29T02:11:52;11.20;1.00
3912;DHT22;1971;51.778;10.330;2023-05-29T02:14:25;11.30;1.00
3912;DHT22;1971;51.778;10.330;2023-05-29T02:16:56;11.20;1.00
3912;DHT22;1971;51.778;10.330;2023-05-29T02:19:28;11.10;1.00
3912;DHT22;1971;51.778;10.330;2023-05-29T02:22:00;11.00;1.00
3912;DHT22;1971;51.778;10.330;2023-05-29T02:24:29;11.00;1.00
3912;DHT22;1971;51.778;10.330;2023-05-29T02:27:00;11.00;1.00
3912;DHT22;1971;51.778;10.330;2023-05-29T02:29:32;10.90;1.00
3912;DHT22;1971;51.778;10.330;2023-05-29T02:32:03;10.90;1.00
3912;DHT22;1971;51.778;10.330;2023-05-29T02:34:33;10.90;1.00
3912;DHT22;1971;51.778;10.330;2023-05-29T02:37:04;10.90;1.00
3912;DHT22;1971;51.778;10.330;2023-05-29T02:39:34;10.80;1.00
3912;DHT22;1971;51.778;10.330;2023-05-29T02:42:05;10.70;1.00
3912;DHT22;1971;51.778;10.330;2023-05-29T02:44:38;10.70;1.00
3912;DHT22;1971;51.778;10.330;2023-05-29T02:47:08;10.50;1.00
3912;DHT22;1971;51.778;10.330;2023-05-29T02:49:38;10.50;1.00
3912;DHT22;1971;51.778;10.330;2023-05-29T02:52:08;10.50;1.00
3912;DHT22;1971;51.778;10.330;2023-05-29T02:54:39;10.50;1.00
3912;DHT22;1971;51.778;10.330;2023-05-29T02:57:09;10.50;1.00
3912;DHT22;1971;51.778;10.330;2023-05-29T02:59:42;10.40;1.00
3912;DHT22;1971;51.778;10.330;2023-05-29T03:02:12;10.40;1.00
3912;DHT22;1971;51.778;10.330;2023-05-29T03:04:42;10.30;1.00
3912;DHT22;1971;51.778;10.330;2023-05-29T03:07:13;10.20;1.00
3912;DHT22;1971;51.778;10.330;2023-05-29T03:09:43;10.30;1.00
3912;DHT22;1971;51.778;10.330;2023-05-29T03:12:13;10.30;1.00
3912;DHT22;1971;51.778;10.330;2023-05-29T03:14:48;10.30;1.00
3912;DHT22;1971;51.778;10.330;2023-05-29T03:17:19;10.30;1.00
3912;DHT22;1971;51.778;10.330;2023-05-29T03:19:49;10.30;1.00
3912;DHT22;1971;51.778;10.330;2023-05-29T03:22:21;10.20;1.00
3912;DHT22;1971;51.778;10.330;2023-05-29T03:24:51;10.20;1.00
3912;DHT22;1971;51.778;10.330;2023-05-29T03:27:22;10.20;1.00
3912;DHT22;1971;51.778;10.330;2023-05-29T03:30:04;10.10;1.00
3912;DHT22;1971;51.778;10.330;2023-05-29T03:32:35;10.00;1.00
3912;DHT22;1971;51.778;10.330;2023-05-29T03:35:06;10.10;1.00
3912;DHT22;1971;51.778;10.330;2023-05-29T03:37:39;10.10;1.00
3912;DHT22;1971;51.778;10.330;2023-05-29T03:40:11;10.10;1.00
3912;DHT22;1971;51.778;10.330;2023-05-29T03:42:42;10.10;1.00
3912;DHT22;1971;51.778;10.330;2023-05-29T03:45:17;10.10;1.00
3912;DHT22;1971;51.778;10.330;2023-05-29T03:47:47;10.00;1.00
3912;DHT22;1971;51.778;10.330;2023-05-29T03:50:17;10.10;1.00
3912;DHT22;1971;51.778;10.330;2023-05-29T03:52:47;10.10;1.00
3912;DHT22;1971;51.778;10.330;2023-05-29T03:55:17;10.10;1.00
3912;DHT22;1971;51.778;10.330;2023-05-29T03:57:47;10.00;1.00
3912;DHT22;1971;51.778;10.330;2023-05-29T04:00:20;10.10;1.00
3912;DHT22;1971;51.778;10.330;2023-05-29T04:02:51;10.10;1.00
3912;DHT22;1971;51.778;10.330;2023-05-29T04:05:22;10.10;1.00
3912;DHT22;1971;51.778;10.330;2023-05-29T04:07:52;10.10;1.00
3912;DHT22;1971;51.778;10.330;2023-05-29T04:10:41;10.10;1.00
3912;DHT22;1971;51.778;10.330;2023-05-29T04:13:11;10.30;1.00
3912;DHT22;1971;51.778;10.330;2023-05-29T04:15:44;10.30;1.00
3912;DHT22;1971;51.778;10.330;2023-05-29T04:18:16;10.40;1.00
3912;DHT22;1971;51.778;10.330;2023-05-29T04:20:47;10.50;1.00
3912;DHT22;1971;51.778;10.330;2023-05-29T04:23:17;10.60;1.00
3912;DHT22;1971;51.778;10.330;2023-05-29T04:25:48;10.60;1.00
3912;DHT22;1971;51.778;10.330;2023-05-29T04:28:24;10.70;1.00
3912;DHT22;1971;51.778;10.330;2023-05-29T04:30:58;10.60;1.00
3912;DHT22;1971;51.778;10.330;2023-05-29T04:33:29;10.80;1.00
3912;DHT22;1971;51.778;10.330;2023-05-29T04:36:00;10.90;1.00
3912;DHT22;1971;51.778;10.330;2023-05-29T04:38:31;10.90;1.00
3912;DHT22;1971;51.778;10.330;2023-05-29T04:41:04;11.10;1.00
3912;DHT22;1971;51.778;10.330;2023-05-29T04:43:35;11.20;1.00
3912;DHT22;1971;51.778;10.330;2023-05-29T04:46:10;11.30;1.00
3912;DHT22;1971;51.778;10.330;2023-05-29T04:48:43;11.50;1.00
3912;DHT22;1971;51.778;10.330;2023-05-29T04:51:13;11.50;1.00
3912;DHT22;1971;51.778;10.330;2023-05-29T04:53:43;11.50;1.00
3912;DHT22;1971;51.778;10.330;2023-05-29T04:56:14;11.60;1.00
3912;DHT22;1971;51.778;10.330;2023-05-29T04:58:46;11.60;1.00
3912;DHT22;1971;51.778;10.330;2023-05-29T05:01:19;11.50;1.00
3912;DHT22;1971;51.778;10.330;2023-05-29T05:03:51;11.60;1.00
3912;DHT22;1971;51.778;10.330;2023-05-29T05:06:23;11.70;1.00
3912;DHT22;1971;51.778;10.330;2023-05-29T05:08:53;11.70;1.00
3912;DHT22;1971;51.778;10.330;2023-05-29T05:11:23;11.80;1.00
3912;DHT22;1971;51.778;10.330;2023-05-29T05:13:54;12.00;1.00
3912;DHT22;1971;51.778;10.330;2023-05-29T05:16:27;12.00;1.00
3912;DHT22;1971;51.778;10.330;2023-05-29T05:18:57;12.10;1.00
3912;DHT22;1971;51.778;10.330;2023-05-29T05:21:32;12.30;1.00
3912;DHT22;1971;51.778;10.330;2023-05-29T05:24:03;12.40;1.00
3912;DHT22;1971;51.778;10.330;2023-05-29T05:26:33;12.60;1.00
3912;DHT22;1971;51.778;10.330;2023-05-29T05:29:04;12.60;1.00
3912;DHT22;1971;51.778;10.330;2023-05-29T05:31:39;12.60;1.00
3912;DHT22;1971;51.778;10.330;2023-05-29T05:34:09;12.70;1.00
3912;DHT22;1971;51.778;10.330;2023-05-29T05:36:41;12.70;1.00
3912;DHT22;1971;51.778;10.330;2023-05-29T05:39:14;12.70;1.00
3912;DHT22;1971;51.778;10.330;2023-05-29T05:41:46;12.90;1.00
3912;DHT22;1971;51.778;10.330;2023-05-29T05:44:29;12.80;1.00
3912;DHT22;1971;51.778;10.330;2023-05-29T05:47:09;13.00;1.00
3912;DHT22;1971;51.778;10.330;2023-05-29T05:49:39;13.10;1.00
3912;DHT22;1971;51.778;10.330;2023-05-29T05:52:11;13.00;1.00
3912;DHT22;1971;51.778;10.330;2023-05-29T05:54:42;13.10;1.00
3912;DHT22;1971;51.778;10.330;2023-05-29T05:57:13;13.10;1.00
3912;DHT22;1971;51.778;10.330;2023-05-29T05:59:44;13.40;1.00
3912;DHT22;1971;51.778;10.330;2023-05-29T06:02:17;13.50;99.90
3912;DHT22;1971;51.778;10.330;2023-05-29T06:04:48;13.50;99.90
3912;DHT22;1971;51.778;10.330;2023-05-29T06:07:19;13.60;99.90
3912;DHT22;1971;51.778;10.330;2023-05-29T06:09:49;13.80;99.90
3912;DHT22;1971;51.778;10.330;2023-05-29T06:12:20;14.00;99.90
3912;DHT22;1971;51.778;10.330;2023-05-29T06:15:00;14.20;99.90
3912;DHT22;1971;51.778;10.330;2023-05-29T06:17:36;14.30;99.90
3912;DHT22;1971;51.778;10.330;2023-05-29T06:20:08;14.40;99.90
3912;DHT22;1971;51.778;10.330;2023-05-29T06:22:40;14.50;99.90
3912;DHT22;1971;51.778;10.330;2023-05-29T06:25:11;14.50;99.90
3912;DHT22;1971;51.778;10.330;2023-05-29T06:27:41;14.60;99.90
3912;DHT22;1971;51.778;10.330;2023-05-29T06:30:12;14.70;99.90
3912;DHT22;1971;51.778;10.330;2023-05-29T06:32:45;14.80;99.90
3912;DHT22;1971;51.778;10.330;2023-05-29T06:35:16;14.80;99.90
3912;DHT22;1971;51.778;10.330;2023-05-29T06:37:46;14.90;99.90
3912;DHT22;1971;51.778;10.330;2023-05-29T06:40:17;15.00;99.90
3912;DHT22;1971;51.778;10.330;2023-05-29T06:42:47;15.20;99.90
3912;DHT22;1971;51.778;10.330;2023-05-29T06:45:18;15.20;99.90
3912;DHT22;1971;51.778;10.330;2023-05-29T06:47:51;15.20;99.90
3912;DHT22;1971;51.778;10.330;2023-05-29T06:50:22;15.20;99.90
3912;DHT22;1971;51.778;10.330;2023-05-29T06:52:52;15.30;99.90
3912;DHT22;1971;51.778;10.330;2023-05-29T06:55:26;15.40;99.90
3912;DHT22;1971;51.778;10.330;2023-05-29T06:57:57;15.60;99.90
3912;DHT22;1971;51.778;10.330;2023-05-29T07:00:27;15.80;99.90
3912;DHT22;1971;51.778;10.330;2023-05-29T07:03:30;15.70;99.90
3912;DHT22;1971;51.778;10.330;2023-05-29T07:06:03;15.60;99.90
3912;DHT22;1971;51.778;10.330;2023-05-29T07:08:33;16.00;99.90
3912;DHT22;1971;51.778;10.330;2023-05-29T07:11:05;16.10;99.90
3912;DHT22;1971;51.778;10.330;2023-05-29T07:13:36;16.10;99.90
3912;DHT22;1971;51.778;10.330;2023-05-29T07:16:07;16.20;99.90
3912;DHT22;1971;51.778;10.330;2023-05-29T07:18:55;16.20;99.90
3912;DHT22;1971;51.778;10.330;2023-05-29T07:21:29;16.20;99.90
3912;DHT22;1971;51.778;10.330;2023-05-29T07:24:00;16.60;99.90
3912;DHT22;1971;51.778;10.330;2023-05-29T07:26:30;16.60;99.90
3912;DHT22;1971;51.778;10.330;2023-05-29T07:29:02;16.70;99.90
3912;DHT22;1971;51.778;10.330;2023-05-29T07:31:33;16.60;99.90
3912;DHT22;1971;51.778;10.330;2023-05-29T07:34:05;16.90;99.90
3912;DHT22;1971;51.778;10.330;2023-05-29T07:36:37;17.10;99.90
3912;DHT22;1971;51.778;10.330;2023-05-29T07:46:20;17.50;99.90
3912;DHT22;1971;51.778;10.330;2023-05-29T07:48:54;17.50;99.90
3912;DHT22;1971;51.778;10.330;2023-05-29T07:51:27;17.30;99.90
3912;DHT22;1971;51.778;10.330;2023-05-29T07:53:57;17.50;99.90
3912;DHT22;1971;51.778;10.330;2023-05-29T07:56:27;17.40;99.90
3912;DHT22;1971;51.778;10.330;2023-05-29T07:58:58;17.70;99.90
3912;DHT22;1971;51.778;10.330;2023-05-29T08:01:28;17.60;99.90
3912;DHT22;1971;51.778;10.330;2023-05-29T08:03:58;17.50;99.90
3912;DHT22;1971;51.778;10.330;2023-05-29T08:06:33;17.40;99.90
3912;DHT22;1971;51.778;10.330;2023-05-29T08:09:04;17.20;99.90
3912;DHT22;1971;51.778;10.330;2023-05-29T08:11:35;17.40;99.90
3912;DHT22;1971;51.778;10.330;2023-05-29T08:14:05;17.50;99.90
3912;DHT22;1971;51.778;10.330;2023-05-29T08:16:37;17.60;99.90
3912;DHT22;1971;51.778;10.330;2023-05-29T08:19:08;17.70;99.90
3912;DHT22;1971;51.778;10.330;2023-05-29T08:21:41;18.00;99.90
3912;DHT22;1971;51.778;10.330;2023-05-29T08:24:11;17.60;99.90
3912;DHT22;1971;51.778;10.330;2023-05-29T08:26:41;17.50;99.90
3912;DHT22;1971;51.778;10.330;2023-05-29T08:29:11;17.30;99.90
3912;DHT22;1971;51.778;10.330;2023-05-29T08:31:41;17.40;99.90
3912;DHT22;1971;51.778;10.330;2023-05-29T08:34:12;17.40;99.90
3912;DHT22;1971;51.778;10.330;2023-05-29T08:36:44;17.20;99.90
3912;DHT22;1971;51.778;10.330;2023-05-29T08:39:15;17.20;99.90
3912;DHT22;1971;51.778;10.330;2023-05-29T08:41:53;17.50;99.90
3912;DHT22;1971;51.778;10.330;2023-05-29T08:44:29;17.60;99.90
3912;DHT22;1971;51.778;10.330;2023-05-29T08:47:02;17.70;99.90
3912;DHT22;1971;51.778;10.330;2023-05-29T08:49:40;17.90;99.90
3912;DHT22;1971;51.778;10.330;2023-05-29T08:52:16;18.00;99.90
3912;DHT22;1971;51.778;10.330;2023-05-29T08:54:46;17.70;99.90
3912;DHT22;1971;51.778;10.330;2023-05-29T08:57:17;17.70;99.90
3912;DHT22;1971;51.778;10.330;2023-05-29T08:59:51;17.50;99.90
3912;DHT22;1971;51.778;10.330;2023-05-29T09:02:22;17.70;99.90
3912;DHT22;1971;51.778;10.330;2023-05-29T09:04:52;17.60;99.90
3912;DHT22;1971;51.778;10.330;2023-05-29T09:07:26;17.50;99.90
3912;DHT22;1971;51.778;10.330;2023-05-29T09:09:57;17.80;99.90
3912;DHT22;1971;51.778;10.330;2023-05-29T09:12:28;17.70;99.90
3912;DHT22;1971;51.778;10.330;2023-05-29T09:14:58;17.70;99.90
3912;DHT22;1971;51.778;10.330;2023-05-29T09:17:31;17.90;99.90
3912;DHT22;1971;51.778;10.330;2023-05-29T09:20:02;17.70;99.90
3912;DHT22;1971;51.778;10.330;2023-05-29T09:22:36;18.10;99.90
3912;DHT22;1971;51.778;10.330;2023-05-29T09:25:07;18.10;99.90
3912;DHT22;1971;51.778;10.330;2023-05-29T09:27:39;18.10;99.90
3912;DHT22;1971;51.778;10.330;2023-05-29T09:30:10;18.30;99.90
3912;DHT22;1971;51.778;10.330;2023-05-29T09:32:41;18.20;99.90
3912;DHT22;1971;51.778;10.330;2023-05-29T09:35:11;18.20;99.90
3912;DHT22;1971;51.778;10.330;2023-05-29T09:37:44;18.20;99.90
3912;DHT22;1971;51.778;10.330;2023-05-29T09:40:14;17.90;99.90
3912;DHT22;1971;51.778;10.330;2023-05-29T09:42:44;18.00;99.90
3912;DHT22;1971;51.778;10.330;2023-05-29T09:45:17;18.00;99.90
3912;DHT22;1971;51.778;10.330;2023-05-29T09:47:47;18.10;99.90
3912;DHT22;1971;51.778;10.330;2023-05-29T09:50:20;18.10;99.90
3912;DHT22;1971;51.778;10.330;2023-05-29T09:52:58;18.20;99.90
3912;DHT22;1971;51.778;10.330;2023-05-29T09:55:31;18.40;99.90
3912;DHT22;1971;51.778;10.330;2023-05-29T09:58:04;18.30;99.90
3912;DHT22;1971;51.778;10.330;2023-05-29T10:00:35;18.60;99.90
3912;DHT22;1971;51.778;10.330;2023-05-29T10:03:06;18.70;99.90
3912;DHT22;1971;51.778;10.330;2023-05-29T10:05:37;18.40;99.90
3912;DHT22;1971;51.778;10.330;2023-05-29T10:08:13;18.40;99.90
3912;DHT22;1971;51.778;10.330;2023-05-29T10:10:45;18.30;99.90
3912;DHT22;1971;51.778;10.330;2023-05-29T10:13:16;18.40;99.90
3912;DHT22;1971;51.778;10.330;2023-05-29T10:15:50;18.50;99.90
3912;DHT22;1971;51.778;10.330;2023-05-29T10:18:25;18.80;99.90
3912;DHT22;1971;51.778;10.330;2023-05-29T10:20:56;18.80;99.90
3912;DHT22;1971;51.778;10.330;2023-05-29T10:23:30;18.60;99.90
3912;DHT22;1971;51.778;10.330;2023-05-29T10:26:06;18.50;99.90
3912;DHT22;1971;51.778;10.330;2023-05-29T10:28:42;18.40;99.90
3912;DHT22;1971;51.778;10.330;2023-05-29T10:31:17;18.50;99.90
3912;DHT22;1971;51.778;10.330;2023-05-29T10:34:01;18.60;99.90
3912;DHT22;1971;51.778;10.330;2023-05-29T10:36:36;18.80;99.90
3912;DHT22;1971;51.778;10.330;2023-05-29T10:39:11;18.80;99.90
3912;DHT22;1971;51.778;10.330;2023-05-29T10:41:41;18.90;99.90
3912;DHT22;1971;51.778;10.330;2023-05-29T10:44:39;18.60;99.90
3912;DHT22;1971;51.778;10.330;2023-05-29T10:47:12;18.40;99.90
3912;DHT22;1971;51.778;10.330;2023-05-29T10:49:52;18.40;99.90
3912;DHT22;1971;51.778;10.330;2023-05-29T10:52:31;18.50;99.90
3912;DHT22;1971;51.778;10.330;2023-05-29T10:55:04;18.50;99.90
3912;DHT22;1971;51.778;10.330;2023-05-29T10:57:34;18.60;99.90
3912;DHT22;1971;51.778;10.330;2023-05-29T11:00:06;18.50;99.90
3912;DHT22;1971;51.778;10.330;2023-05-29T11:02:40;18.40;99.90
3912;DHT22;1971;51.778;10.330;2023-05-29T11:05:21;18.70;99.90
3912;DHT22;1971;51.778;10.330;2023-05-29T11:07:55;19.10;99.90
3912;DHT22;1971;51.778;10.330;2023-05-29T11:10:44;19.40;99.90
3912;DHT22;1971;51.778;10.330;2023-05-29T11:13:25;19.30;99.90
3912;DHT22;1971;51.778;10.330;2023-05-29T11:16:05;19.20;99.90
3912;DHT22;1971;51.778;10.330;2023-05-29T11:18:40;19.40;99.90
3912;DHT22;1971;51.778;10.330;2023-05-29T11:21:31;19.30;99.90
3912;DHT22;1971;51.778;10.330;2023-05-29T11:24:04;19.40;99.90
3912;DHT22;1971;51.778;10.330;2023-05-29T11:26:37;19.10;99.90
3912;DHT22;1971;51.778;10.330;2023-05-29T11:29:07;18.70;99.90
3912;DHT22;1971;51.778;10.330;2023-05-29T11:31:39;18.90;99.90
3912;DHT22;1971;51.778;10.330;2023-05-29T11:34:14;18.30;99.90
3912;DHT22;1971;51.778;10.330;2023-05-29T11:36:44;18.80;99.90
3912;DHT22;1971;51.778;10.330;2023-05-29T11:39:16;18.80;99.90
3912;DHT22;1971;51.778;10.330;2023-05-29T11:41:52;18.70;99.90
3912;DHT22;1971;51.778;10.330;2023-05-29T11:44:24;18.70;99.90
3912;DHT22;1971;51.778;10.330;2023-05-29T11:47:00;19.00;99.90
3912;DHT22;1971;51.778;10.330;2023-05-29T11:49:32;18.90;99.90
3912;DHT22;1971;51.778;10.330;2023-05-29T11:52:08;19.00;99.90
3912;DHT22;1971;51.778;10.330;2023-05-29T11:54:41;19.10;99.90
3912;DHT22;1971;51.778;10.330;2023-05-29T11:57:22;19.10;99.90
3912;DHT22;1971;51.778;10.330;2023-05-29T11:59:52;19.30;99.90
3912;DHT22;1971;51.778;10.330;2023-05-29T12:02:26;18.70;99.90
3912;DHT22;1971;51.778;10.330;2023-05-29T12:05:00;18.90;99.90
3912;DHT22;1971;51.778;10.330;2023-05-29T12:07:32;18.90;99.90
3912;DHT22;1971;51.778;10.330;2023-05-29T12:10:11;19.20;99.90
3912;DHT22;1971;51.778;10.330;2023-05-29T12:12:47;18.90;99.90
3912;DHT22;1971;51.778;10.330;2023-05-29T12:15:18;19.30;99.90
3912;DHT22;1971;51.778;10.330;2023-05-29T12:17:50;19.30;99.90
3912;DHT22;1971;51.778;10.330;2023-05-29T12:20:23;19.00;99.90
3912;DHT22;1971;51.778;10.330;2023-05-29T12:22:59;18.50;99.90
3912;DHT22;1971;51.778;10.330;2023-05-29T12:25:30;18.20;99.90
3912;DHT22;1971;51.778;10.330;2023-05-29T12:28:02;18.10;99.90
3912;DHT22;1971;51.778;10.330;2023-05-29T12:30:37;18.00;99.90
3912;DHT22;1971;51.778;10.330;2023-05-29T12:33:09;18.00;99.90
3912;DHT22;1971;51.778;10.330;2023-05-29T12:35:39;18.20;99.90
3912;DHT22;1971;51.778;10.330;2023-05-29T12:38:09;18.50;99.90
3912;DHT22;1971;51.778;10.330;2023-05-29T12:40:39;18.90;99.90
3912;DHT22;1971;51.778;10.330;2023-05-29T12:43:12;19.10;99.90
3912;DHT22;1971;51.778;10.330;2023-05-29T12:45:42;19.30;99.90
3912;DHT22;1971;51.778;10.330;2023-05-29T12:48:12;19.10;99.90
3912;DHT22;1971;51.778;10.330;2023-05-29T12:50:42;19.60;99.90
3912;DHT22;1971;51.778;10.330;2023-05-29T12:53:15;19.70;99.90
3912;DHT22;1971;51.778;10.330;2023-05-29T12:55:46;19.80;99.90
3912;DHT22;1971;51.778;10.330;2023-05-29T12:58:19;19.80;99.90
3912;DHT22;1971;51.778;10.330;2023-05-29T13:00:53;19.90;99.90
3912;DHT22;1971;51.778;10.330;2023-05-29T13:03:24;19.50;99.90
3912;DHT22;1971;51.778;10.330;2023-05-29T13:05:55;19.50;99.90
3912;DHT22;1971;51.778;10.330;2023-05-29T13:08:25;19.60;99.90
3912;DHT22;1971;51.778;10.330;2023-05-29T13:10:55;19.50;99.90
3912;DHT22;1971;51.778;10.330;2023-05-29T13:13:28;19.50;99.40
3912;DHT22;1971;51.778;10.330;2023-05-29T13:15:59;19.30;97.80
3912;DHT22;1971;51.778;10.330;2023-05-29T13:18:29;19.80;99.90
3912;DHT22;1971;51.778;10.330;2023-05-29T13:20:59;19.70;93.70
3912;DHT22;1971;51.778;10.330;2023-05-29T13:23:29;19.90;93.00
3912;DHT22;1971;51.778;10.330;2023-05-29T13:25:59;19.10;73.90
3912;DHT22;1971;51.778;10.330;2023-05-29T13:28:33;19.00;90.70
3912;DHT22;1971;51.778;10.330;2023-05-29T13:31:03;19.10;93.20
3912;DHT22;1971;51.778;10.330;2023-05-29T13:33:33;18.60;91.00
3912;DHT22;1971;51.778;10.330;2023-05-29T13:36:03;18.50;98.90
3912;DHT22;1971;51.778;10.330;2023-05-29T13:41:49;18.00;85.80
3912;DHT22;1971;51.778;10.330;2023-05-29T13:44:22;18.00;93.30
3912;DHT22;1971;51.778;10.330;2023-05-29T13:46:52;18.00;92.20
3912;DHT22;1971;51.778;10.330;2023-05-29T13:49:22;18.30;93.40
3912;DHT22;1971;51.778;10.330;2023-05-29T13:51:54;18.20;94.40
3912;DHT22;1971;51.778;10.330;2023-05-29T13:54:24;18.40;93.10
3912;DHT22;1971;51.778;10.330;2023-05-29T13:56:54;18.90;99.90
3912;DHT22;1971;51.778;10.330;2023-05-29T13:59:27;19.30;99.90
3912;DHT22;1971;51.778;10.330;2023-05-29T14:01:57;19.30;93.70
3912;DHT22;1971;51.778;10.330;2023-05-29T14:04:28;19.20;92.30
3912;DHT22;1971;51.778;10.330;2023-05-29T14:06:59;19.00;81.20
3912;DHT22;1971;51.778;10.330;2023-05-29T14:09:29;19.00;90.60
3912;DHT22;1971;51.778;10.330;2023-05-29T14:12:00;19.00;92.70
3912;DHT22;1971;51.778;10.330;2023-05-29T14:14:33;19.10;89.00
3912;DHT22;1971;51.778;10.330;2023-05-29T14:17:04;18.90;73.10
3912;DHT22;1971;51.778;10.330;2023-05-29T14:19:35;18.70;82.80
3912;DHT22;1971;51.778;10.330;2023-05-29T14:22:05;18.70;75.10
3912;DHT22;1971;51.778;10.330;2023-05-29T14:24:35;18.60;88.30
3912;DHT22;1971;51.778;10.330;2023-05-29T14:27:05;19.00;98.10
3912;DHT22;1971;51.778;10.330;2023-05-29T14:29:38;19.20;73.90
3912;DHT22;1971;51.778;10.330;2023-05-29T14:32:08;19.00;73.70
3912;DHT22;1971;51.778;10.330;2023-05-29T14:34:38;18.60;39.50
3912;DHT22;1971;51.778;10.330;2023-05-29T14:37:08;18.60;60.30
3912;DHT22;1971;51.778;10.330;2023-05-29T14:39:38;18.80;70.00
3912;DHT22;1971;51.778;10.330;2023-05-29T14:42:08;19.20;85.40
3912;DHT22;1971;51.778;10.330;2023-05-29T14:44:41;19.40;72.60
3912;DHT22;1971;51.778;10.330;2023-05-29T14:47:11;19.50;62.20
3912;DHT22;1971;51.778;10.330;2023-05-29T14:49:41;19.50;42.10
3912;DHT22;1971;51.778;10.330;2023-05-29T14:52:11;19.70;68.50
3912;DHT22;1971;51.778;10.330;2023-05-29T14:54:41;19.40;31.30
3912;DHT22;1971;51.778;10.330;2023-05-29T14:57:11;19.30;45.50
3912;DHT22;1971;51.778;10.330;2023-05-29T14:59:44;19.70;57.90
3912;DHT22;1971;51.778;10.330;2023-05-29T15:02:14;19.40;27.70
3912;DHT22;1971;51.778;10.330;2023-05-29T15:04:44;19.30;25.00
3912;DHT22;1971;51.778;10.330;2023-05-29T15:07:16;19.10;11.90
3912;DHT22;1971;51.778;10.330;2023-05-29T15:09:46;19.00;21.30
3912;DHT22;1971;51.778;10.330;2023-05-29T15:12:16;18.90;23.60
3912;DHT22;1971;51.778;10.330;2023-05-29T15:14:49;18.70;16.30
3912;DHT22;1971;51.778;10.330;2023-05-29T15:17:19;18.90;12.10
3912;DHT22;1971;51.778;10.330;2023-05-29T15:19:49;19.00;14.70
3912;DHT22;1971;51.778;10.330;2023-05-29T15:22:19;19.00;14.40
3912;DHT22;1971;51.778;10.330;2023-05-29T15:24:49;18.70;6.30
3912;DHT22;1971;51.778;10.330;2023-05-29T15:27:19;18.30;2.80
3912;DHT22;1971;51.778;10.330;2023-05-29T15:29:52;18.60;14.50
3912;DHT22;1971;51.778;10.330;2023-05-29T15:32:22;18.90;12.50
3912;DHT22;1971;51.778;10.330;2023-05-29T15:34:53;19.30;15.30
3912;DHT22;1971;51.778;10.330;2023-05-29T15:37:23;19.40;18.40
3912;DHT22;1971;51.778;10.330;2023-05-29T15:39:55;19.10;6.00
3912;DHT22;1971;51.778;10.330;2023-05-29T15:42:26;19.40;8.70
3912;DHT22;1971;51.778;10.330;2023-05-29T15:44:59;19.20;1.50
3912;DHT22;1971;51.778;10.330;2023-05-29T15:47:30;19.40;9.60
3912;DHT22;1971;51.778;10.330;2023-05-29T15:50:01;19.50;10.20
3912;DHT22;1971;51.778;10.330;2023-05-29T15:52:31;19.50;1.00
3912;DHT22;1971;51.778;10.330;2023-05-29T15:55:20;19.70;6.00
3912;DHT22;1971;51.778;10.330;2023-05-29T15:57:50;19.70;1.00
3912;DHT22;1971;51.778;10.330;2023-05-29T16:00:23;19.10;1.00
3912;DHT22;1971;51.778;10.330;2023-05-29T16:02:53;19.00;1.00
3912;DHT22;1971;51.778;10.330;2023-05-29T16:05:23;19.20;1.00
3912;DHT22;1971;51.778;10.330;2023-05-29T16:07:54;19.00;1.00
3912;DHT22;1971;51.778;10.330;2023-05-29T16:10:24;19.10;1.00
3912;DHT22;1971;51.778;10.330;2023-05-29T16:12:55;19.20;1.00
3912;DHT22;1971;51.778;10.330;2023-05-29T16:15:28;18.90;1.00
3912;DHT22;1971;51.778;10.330;2023-05-29T16:17:58;19.10;1.00
3912;DHT22;1971;51.778;10.330;2023-05-29T16:20:29;18.90;1.00
3912;DHT22;1971;51.778;10.330;2023-05-29T16:22:59;19.00;1.00
3912;DHT22;1971;51.778;10.330;2023-05-29T16:25:29;18.70;1.00
3912;DHT22;1971;51.778;10.330;2023-05-29T16:28:00;18.70;1.00
3912;DHT22;1971;51.778;10.330;2023-05-29T16:30:33;18.90;1.00
3912;DHT22;1971;51.778;10.330;2023-05-29T16:33:03;19.10;1.00
3912;DHT22;1971;51.778;10.330;2023-05-29T16:35:33;19.20;1.00
3912;DHT22;1971;51.778;10.330;2023-05-29T16:38:03;19.00;1.00